createdAt,value
2022-08-22T00:00:49.724Z,67.40
2022-08-22T00:02:55.494Z,67.40
2022-08-22T00:02:56.790Z,66.20
2022-08-22T00:02:59.810Z,67.80
2022-08-22T00:03:02.741Z,64.30
2022-08-22T00:03:32.126Z,68.00
2022-08-22T00:06:17.675Z,67.50
2022-08-22T00:08:59.344Z,67.10
2022-08-22T00:11:41.317Z,68.00
2022-08-22T00:14:18.540Z,68.90
2022-08-22T00:16:57.470Z,68.10
2022-08-22T00:19:36.266Z,69.70
2022-08-22T00:22:08.408Z,69.90
2022-08-22T00:24:42.713Z,68.70
2022-08-22T00:27:17.621Z,68.70
2022-08-22T00:29:51.241Z,65.50
2022-08-22T00:32:27.005Z,67.50
2022-08-22T00:35:00.606Z,65.10
2022-08-22T00:37:36.802Z,64.00
2022-08-22T00:40:21.358Z,64.30
2022-08-22T00:43:22.673Z,64.50
2022-08-22T00:46:15.683Z,64.60
2022-08-22T00:49:15.352Z,65.20
2022-08-22T00:52:25.641Z,66.20
2022-08-22T00:55:21.454Z,65.90
2022-08-22T00:58:06.919Z,66.40
2022-08-22T01:00:43.652Z,66.70
2022-08-22T01:03:29.074Z,67.00
2022-08-22T01:06:17.751Z,69.30
2022-08-22T01:09:02.125Z,68.40
2022-08-22T01:11:51.376Z,68.00
2022-08-22T01:14:36.111Z,66.70
2022-08-22T01:17:27.891Z,67.80
2022-08-22T01:20:35.237Z,67.80
2022-08-22T01:23:36.520Z,67.30
2022-08-22T01:26:41.105Z,67.40
2022-08-22T01:29:55.190Z,67.80
2022-08-22T01:33:12.158Z,67.80
2022-08-22T01:36:16.608Z,67.20
2022-08-22T01:39:24.825Z,68.30
2022-08-22T01:42:38.357Z,68.00
2022-08-22T01:45:37.426Z,67.80
2022-08-22T01:48:10.620Z,68.20
2022-08-22T01:50:43.635Z,67.80
2022-08-22T01:53:18.533Z,69.10
2022-08-22T01:55:59.666Z,67.70
2022-08-22T01:58:31.515Z,67.70
2022-08-22T02:01:14.540Z,69.20
2022-08-22T02:03:57.185Z,69.60
2022-08-22T02:06:36.063Z,67.30
2022-08-22T02:09:09.203Z,69.40
2022-08-22T02:11:45.576Z,67.60
2022-08-22T02:14:30.644Z,67.70
2022-08-22T02:17:13.461Z,67.30
2022-08-22T02:19:50.734Z,68.60
2022-08-22T02:22:30.442Z,68.20
2022-08-22T02:25:08.792Z,68.20
2022-08-22T02:27:52.191Z,67.40
2022-08-22T02:30:22.925Z,67.60
2022-08-22T02:33:01.816Z,67.40
2022-08-22T02:35:33.578Z,67.70
2022-08-22T02:38:16.042Z,68.10
2022-08-22T02:40:49.270Z,68.20
2022-08-22T02:43:24.603Z,67.70
2022-08-22T02:46:13.841Z,67.90
2022-08-22T02:48:47.758Z,68.50
2022-08-22T02:51:21.992Z,67.60
2022-08-22T02:53:56.403Z,67.10
2022-08-22T02:56:31.557Z,66.90
2022-08-22T02:59:17.007Z,66.80
2022-08-22T03:01:47.684Z,67.60
2022-08-22T03:04:27.392Z,67.60
2022-08-22T03:07:12.440Z,67.60
2022-08-22T03:09:47.052Z,66.50
2022-08-22T03:12:26.078Z,67.00
2022-08-22T03:15:07.188Z,67.50
2022-08-22T03:17:41.758Z,67.20
2022-08-22T03:20:14.837Z,67.40
2022-08-22T03:22:49.239Z,67.90
2022-08-22T03:25:27.689Z,72.10
2022-08-22T03:28:01.123Z,66.90
2022-08-22T03:30:38.717Z,67.10
2022-08-22T03:33:17.055Z,71.80
2022-08-22T03:36:06.521Z,66.30
2022-08-22T03:39:03.562Z,70.00
2022-08-22T03:42:04.380Z,64.30
2022-08-22T03:44:59.632Z,68.70
2022-08-22T03:47:53.930Z,66.80
2022-08-22T03:50:58.998Z,62.20
2022-08-22T03:54:06.268Z,63.80
2022-08-22T03:57:10.146Z,64.30
2022-08-22T04:00:04.512Z,63.30
2022-08-22T04:02:55.729Z,64.90
2022-08-22T04:06:12.734Z,64.00
2022-08-22T04:08:56.622Z,64.10
2022-08-22T04:12:13.608Z,64.70
2022-08-22T04:15:08.437Z,65.50
2022-08-22T04:18:10.177Z,67.00
2022-08-22T04:21:14.293Z,65.30
2022-08-22T04:24:10.329Z,65.40
2022-08-22T04:26:47.090Z,66.20
2022-08-22T04:29:20.614Z,66.90
2022-08-22T04:31:54.462Z,67.20
2022-08-22T04:34:30.585Z,67.00
2022-08-22T04:37:06.534Z,67.20
2022-08-22T04:39:40.289Z,67.00
2022-08-22T04:42:31.793Z,66.50
2022-08-22T04:45:06.096Z,66.80
2022-08-22T04:47:39.739Z,67.00
2022-08-22T04:50:17.023Z,66.50
2022-08-22T04:52:57.597Z,66.30
2022-08-22T04:55:34.149Z,66.10
2022-08-22T04:58:17.350Z,67.40
2022-08-22T05:00:58.279Z,67.60
2022-08-22T05:03:29.976Z,68.70
2022-08-22T05:06:05.217Z,67.10
2022-08-22T05:08:36.657Z,67.20
2022-08-22T05:11:11.540Z,67.30
2022-08-22T05:13:44.180Z,68.00
2022-08-22T05:16:18.981Z,68.70
2022-08-22T05:18:50.636Z,68.40
2022-08-22T05:21:27.013Z,68.30
2022-08-22T05:24:01.454Z,66.20
2022-08-22T05:26:35.247Z,66.60
2022-08-22T05:29:07.969Z,66.40
2022-08-22T05:31:40.307Z,66.70
2022-08-22T05:34:13.022Z,67.00
2022-08-22T05:36:45.688Z,65.80
2022-08-22T05:39:17.827Z,65.90
2022-08-22T05:41:46.498Z,66.10
2022-08-22T05:44:20.513Z,64.80
2022-08-22T05:46:56.264Z,64.10
2022-08-22T05:49:37.413Z,64.60
2022-08-22T05:52:16.401Z,64.40
2022-08-22T05:54:57.383Z,63.50
2022-08-22T05:57:32.195Z,61.60
2022-08-22T06:00:04.430Z,64.20
2022-08-22T06:02:52.123Z,63.10
2022-08-22T06:05:25.756Z,63.20
2022-08-22T06:08:01.988Z,63.70
2022-08-22T06:10:38.451Z,63.70
2022-08-22T06:13:12.840Z,63.90
2022-08-22T06:15:46.309Z,63.80
2022-08-22T06:18:21.047Z,63.70
2022-08-22T06:20:52.724Z,60.90
2022-08-22T06:23:27.522Z,60.70
2022-08-22T06:25:59.665Z,62.80
2022-08-22T06:28:33.187Z,63.50
2022-08-22T06:31:06.232Z,64.30
2022-08-22T06:33:40.854Z,65.00
2022-08-22T06:36:34.325Z,67.60
2022-08-22T06:39:18.499Z,66.30
2022-08-22T06:41:51.970Z,66.50
2022-08-22T06:44:24.997Z,65.90
2022-08-22T06:46:56.563Z,65.30
2022-08-22T06:49:27.117Z,64.40
2022-08-22T06:52:00.349Z,64.70
2022-08-22T06:54:34.739Z,63.90
2022-08-22T06:57:06.311Z,64.20
2022-08-22T06:59:39.274Z,63.90
2022-08-22T07:02:17.577Z,63.70
2022-08-22T07:04:49.743Z,63.70
2022-08-22T07:07:20.049Z,62.40
2022-08-22T07:09:55.474Z,62.00
2022-08-22T07:12:29.158Z,62.30
2022-08-22T07:15:02.933Z,62.80
2022-08-22T07:17:35.893Z,62.70
2022-08-22T07:20:23.636Z,63.10
2022-08-22T07:22:56.409Z,62.70
2022-08-22T07:25:26.888Z,62.70
2022-08-22T07:28:21.196Z,62.60
2022-08-22T07:31:12.213Z,62.40
2022-08-22T07:33:47.538Z,62.30
2022-08-22T07:36:29.595Z,62.80
2022-08-22T07:39:21.831Z,63.40
2022-08-22T07:42:03.729Z,63.40
2022-08-22T07:44:37.386Z,64.40
2022-08-22T07:47:11.886Z,64.60
2022-08-22T07:49:50.403Z,64.40
2022-08-22T07:52:20.076Z,64.60
2022-08-22T07:54:53.951Z,64.70
2022-08-22T07:57:29.253Z,65.00
2022-08-22T08:00:00.468Z,64.80
2022-08-22T08:02:29.597Z,64.60
2022-08-22T08:05:00.849Z,64.80
2022-08-22T08:07:32.199Z,64.30
2022-08-22T08:10:04.538Z,64.00
2022-08-22T08:12:37.438Z,63.80
2022-08-22T08:15:10.437Z,64.00
2022-08-22T08:17:39.835Z,64.10
2022-08-22T08:20:12.782Z,63.80
2022-08-22T08:22:43.966Z,64.30
2022-08-22T08:25:15.100Z,64.40
2022-08-22T08:28:18.226Z,64.50
2022-08-22T08:30:54.173Z,64.40
2022-08-22T08:33:26.752Z,64.40
2022-08-22T08:36:02.083Z,64.40
2022-08-22T08:38:37.510Z,64.20
2022-08-22T08:41:42.384Z,64.60
2022-08-22T08:44:27.112Z,64.20
2022-08-22T08:47:18.278Z,64.30
2022-08-22T08:50:07.021Z,64.10
2022-08-22T08:53:09.534Z,64.30
2022-08-22T08:55:47.414Z,64.10
2022-08-22T08:58:40.929Z,64.20
2022-08-22T09:01:48.940Z,64.10
2022-08-22T09:05:00.994Z,64.40
2022-08-22T09:07:52.623Z,64.70
2022-08-22T09:10:47.342Z,64.90
2022-08-22T09:13:34.561Z,64.80
2022-08-22T09:16:35.281Z,64.80
2022-08-22T09:19:38.656Z,64.80
2022-08-22T09:22:33.380Z,64.50
2022-08-22T09:25:25.828Z,64.70
2022-08-22T09:28:01.651Z,64.90
2022-08-22T09:30:46.070Z,64.80
2022-08-22T09:33:28.289Z,64.90
2022-08-22T09:36:12.323Z,64.80
2022-08-22T09:38:48.695Z,64.50
2022-08-22T09:41:36.462Z,64.30
2022-08-22T09:44:17.816Z,64.10
2022-08-22T09:46:57.091Z,64.30
2022-08-22T09:49:38.612Z,64.30
2022-08-22T09:52:34.188Z,64.10
2022-08-22T09:55:13.423Z,63.70
2022-08-22T09:57:52.046Z,63.70
2022-08-22T10:00:32.985Z,64.10
2022-08-22T10:03:12.129Z,64.00
2022-08-22T10:05:46.893Z,64.10
2022-08-22T10:08:34.012Z,63.50
2022-08-22T10:11:11.298Z,63.50
2022-08-22T10:14:03.384Z,63.80
2022-08-22T10:16:43.980Z,63.50
2022-08-22T10:19:21.035Z,63.50
2022-08-22T10:22:07.771Z,62.70
2022-08-22T10:24:46.420Z,61.50
2022-08-22T10:27:18.863Z,60.60
2022-08-22T10:30:02.248Z,62.20
2022-08-22T10:32:37.277Z,62.60
2022-08-22T10:35:17.465Z,61.90
2022-08-22T10:37:55.108Z,63.00
2022-08-22T10:40:29.889Z,64.20
2022-08-22T10:43:02.900Z,65.10
2022-08-22T10:45:36.197Z,63.60
2022-08-22T10:48:33.591Z,62.80
2022-08-22T10:51:21.056Z,61.30
2022-08-22T10:54:04.827Z,62.20
2022-08-22T10:56:43.903Z,62.40
2022-08-22T10:59:29.280Z,62.00
2022-08-22T11:02:11.230Z,62.30
2022-08-22T11:04:58.985Z,62.20
2022-08-22T11:07:48.701Z,62.10
2022-08-22T11:10:27.958Z,62.00
2022-08-22T11:13:11.954Z,62.40
2022-08-22T11:16:09.435Z,62.50
2022-08-22T11:19:14.622Z,63.10
2022-08-22T11:22:04.979Z,62.70
2022-08-22T11:25:04.390Z,62.80
2022-08-22T11:27:40.767Z,62.80
2022-08-22T11:30:20.532Z,62.90
2022-08-22T11:33:32.506Z,62.50
2022-08-22T11:36:26.240Z,62.70
2022-08-22T11:39:06.566Z,62.50
2022-08-22T11:41:48.408Z,62.20
2022-08-22T11:44:27.556Z,61.20
2022-08-22T11:46:58.875Z,60.70
2022-08-22T11:49:48.550Z,60.30
2022-08-22T11:52:30.807Z,59.80
2022-08-22T11:55:21.543Z,57.30
2022-08-22T11:57:53.619Z,57.80
2022-08-22T12:00:32.391Z,57.80
2022-08-22T12:03:36.474Z,59.10
2022-08-22T12:06:26.631Z,59.50
2022-08-22T12:09:13.034Z,60.00
2022-08-22T12:11:49.646Z,60.30
2022-08-22T12:14:27.037Z,59.90
2022-08-22T12:17:28.509Z,60.90
2022-08-22T12:20:16.493Z,61.90
2022-08-22T12:23:13.595Z,60.40
2022-08-22T12:25:56.205Z,54.70
2022-08-22T12:28:33.871Z,56.10
2022-08-22T12:31:14.193Z,57.30
2022-08-22T12:34:08.651Z,57.70
2022-08-22T12:37:03.031Z,57.10
2022-08-22T12:39:51.061Z,57.70
2022-08-22T12:42:36.775Z,57.60
2022-08-22T12:45:31.662Z,57.60
2022-08-22T12:48:11.179Z,59.00
2022-08-22T12:50:47.102Z,58.70
2022-08-22T12:53:54.030Z,57.10
2022-08-22T12:56:34.677Z,56.20
2022-08-22T12:59:17.711Z,56.60
2022-08-22T13:01:49.024Z,56.40
2022-08-22T13:04:32.555Z,56.20
2022-08-22T13:07:10.601Z,56.40
2022-08-22T13:09:43.190Z,55.60
2022-08-22T13:12:24.283Z,55.00
2022-08-22T13:14:57.608Z,55.60
2022-08-22T13:17:27.018Z,55.60
2022-08-22T13:20:01.964Z,55.30
2022-08-22T13:22:34.881Z,54.60
2022-08-22T13:25:08.605Z,53.20
2022-08-22T13:27:51.182Z,54.10
2022-08-22T13:30:23.318Z,54.10
2022-08-22T13:32:54.496Z,54.20
2022-08-22T13:35:28.009Z,54.60
2022-08-22T13:38:05.487Z,54.10
2022-08-22T13:40:35.006Z,54.60
2022-08-22T13:43:11.126Z,54.40
2022-08-22T13:45:43.987Z,54.70
2022-08-22T13:48:15.590Z,54.70
2022-08-22T13:50:59.840Z,54.40
2022-08-22T13:53:35.383Z,54.10
2022-08-22T13:56:15.959Z,54.80
2022-08-22T13:58:48.054Z,54.60
2022-08-22T14:01:36.012Z,54.90
2022-08-22T14:04:28.981Z,54.70
2022-08-22T14:07:25.479Z,54.60
2022-08-22T14:09:57.721Z,54.70
2022-08-22T14:12:28.148Z,54.70
2022-08-22T14:15:07.021Z,54.70
2022-08-22T14:17:43.063Z,54.90
2022-08-22T14:20:14.773Z,54.80
2022-08-22T14:23:04.997Z,55.00
2022-08-22T14:25:38.873Z,55.30
2022-08-22T14:28:09.850Z,55.60
2022-08-22T14:30:54.348Z,55.90
2022-08-22T14:33:33.343Z,56.20
2022-08-22T14:36:14.053Z,56.60
2022-08-22T14:38:48.217Z,56.90
2022-08-22T14:41:52.463Z,57.50
2022-08-22T14:44:24.141Z,57.50
2022-08-22T14:46:58.567Z,57.70
2022-08-22T14:49:48.946Z,58.00
2022-08-22T14:52:33.711Z,58.20
2022-08-22T14:55:24.059Z,58.30
2022-08-22T14:57:56.317Z,58.30
2022-08-22T15:00:32.562Z,58.50
2022-08-22T15:03:23.223Z,58.60
2022-08-22T15:05:54.230Z,58.50
2022-08-22T15:08:27.513Z,58.50
2022-08-22T15:11:22.013Z,58.50
2022-08-22T15:14:02.402Z,58.40
2022-08-22T15:16:34.429Z,58.40
2022-08-22T15:19:21.811Z,58.30
2022-08-22T15:21:51.294Z,58.30
2022-08-22T15:24:20.167Z,58.40
2022-08-22T15:26:53.060Z,58.40
2022-08-22T15:29:26.691Z,58.40
2022-08-22T15:31:59.774Z,58.40
2022-08-22T15:34:33.507Z,58.40
2022-08-22T15:37:21.552Z,58.40
2022-08-22T15:40:12.791Z,58.40
2022-08-22T15:42:43.558Z,58.30
2022-08-22T15:45:22.413Z,58.30
2022-08-22T15:47:53.470Z,58.10
2022-08-22T15:50:36.254Z,58.20
2022-08-22T15:53:15.485Z,58.10
2022-08-22T15:56:25.560Z,58.10
2022-08-22T15:59:27.475Z,58.10
2022-08-22T16:02:01.173Z,57.90
2022-08-22T16:04:47.420Z,57.70
2022-08-22T16:07:35.242Z,57.70
2022-08-22T16:10:12.561Z,57.40
2022-08-22T16:12:44.093Z,57.50
2022-08-22T16:15:45.470Z,57.40
2022-08-22T16:18:46.782Z,57.50
2022-08-22T16:21:16.139Z,57.50
2022-08-22T16:24:29.906Z,57.60
2022-08-22T16:27:18.852Z,57.60
2022-08-22T16:29:47.376Z,57.50
2022-08-22T16:32:26.082Z,57.60
2022-08-22T16:34:54.315Z,57.60
2022-08-22T16:37:45.004Z,57.40
2022-08-22T16:40:25.372Z,57.40
2022-08-22T16:43:16.351Z,57.40
2022-08-22T16:45:47.307Z,57.40
2022-08-22T16:48:26.805Z,57.30
2022-08-22T16:51:14.947Z,57.20
2022-08-22T16:54:19.746Z,57.30
2022-08-22T16:57:10.754Z,57.30
2022-08-22T17:00:04.335Z,57.30
2022-08-22T17:03:02.546Z,57.40
2022-08-22T17:05:44.266Z,57.40
2022-08-22T17:08:29.437Z,57.50
2022-08-22T17:11:07.067Z,57.50
2022-08-22T17:13:58.000Z,57.40
2022-08-22T17:16:40.975Z,57.30
2022-08-22T17:19:21.247Z,57.30
2022-08-22T17:21:57.018Z,57.10
2022-08-22T17:24:34.802Z,57.20
2022-08-22T17:27:09.410Z,57.60
2022-08-22T17:29:53.754Z,57.60
2022-08-22T17:32:33.570Z,57.60
2022-08-22T17:35:15.169Z,57.60
2022-08-22T17:37:54.378Z,57.60
2022-08-22T17:40:36.757Z,57.70
2022-08-22T17:43:23.302Z,57.70
2022-08-22T17:46:07.707Z,57.70
2022-08-22T17:48:48.816Z,57.80
2022-08-22T17:51:28.426Z,57.80
2022-08-22T17:54:02.311Z,57.90
2022-08-22T17:56:40.413Z,57.90
2022-08-22T17:59:16.027Z,58.00
2022-08-22T18:01:51.663Z,58.20
2022-08-22T18:04:28.407Z,58.20
2022-08-22T18:07:05.639Z,58.40
2022-08-22T18:09:40.367Z,58.50
2022-08-22T18:12:18.708Z,58.50
2022-08-22T18:14:53.507Z,58.60
2022-08-22T18:17:29.737Z,58.70
2022-08-22T18:20:05.225Z,58.80
2022-08-22T18:22:42.145Z,58.70
2022-08-22T18:25:30.163Z,58.80
2022-08-22T18:28:02.075Z,58.80
2022-08-22T18:30:36.644Z,58.80
2022-08-22T18:33:12.558Z,58.90
2022-08-22T18:35:49.791Z,58.80
2022-08-22T18:38:29.019Z,58.60
2022-08-22T18:41:06.574Z,58.60
2022-08-22T18:43:38.844Z,58.60
2022-08-22T18:46:42.346Z,58.50
2022-08-22T18:49:29.891Z,58.20
2022-08-22T18:52:22.941Z,58.10
2022-08-22T18:55:15.580Z,58.00
2022-08-22T18:58:02.984Z,58.00
2022-08-22T19:01:00.806Z,57.90
2022-08-22T19:03:48.995Z,57.80
2022-08-22T19:06:43.876Z,57.60
2022-08-22T19:09:57.884Z,57.50
2022-08-22T19:12:50.334Z,57.90
2022-08-22T19:15:35.113Z,58.30
2022-08-22T19:18:30.678Z,58.80
2022-08-22T19:21:50.241Z,58.70
2022-08-22T19:24:36.835Z,59.10
2022-08-22T19:27:30.993Z,59.10
2022-08-22T19:30:02.432Z,59.40
2022-08-22T19:33:03.052Z,59.80
2022-08-22T19:35:47.152Z,60.00
2022-08-22T19:38:53.687Z,59.40
2022-08-22T19:41:52.617Z,59.00
2022-08-22T19:44:42.210Z,58.90
2022-08-22T19:47:30.635Z,58.90
2022-08-22T19:50:05.391Z,58.90
2022-08-22T19:53:01.836Z,58.80
2022-08-22T19:55:45.016Z,58.80
2022-08-22T19:58:32.635Z,58.80
2022-08-22T20:01:12.283Z,58.90
2022-08-22T20:03:49.826Z,58.90
2022-08-22T20:06:47.801Z,58.80
2022-08-22T20:09:27.572Z,58.90
2022-08-22T20:12:09.228Z,58.90
2022-08-22T20:14:43.345Z,59.10
2022-08-22T20:17:14.573Z,59.00
2022-08-22T20:20:16.422Z,59.00
2022-08-22T20:22:42.532Z,59.00
2022-08-22T20:25:42.147Z,59.10
2022-08-22T20:28:09.956Z,59.20
2022-08-22T20:30:42.463Z,59.20
2022-08-22T20:33:14.707Z,59.20
2022-08-22T20:35:46.569Z,59.30
2022-08-22T20:38:17.645Z,59.30
2022-08-22T20:40:54.517Z,59.30
2022-08-22T20:43:29.061Z,59.30
2022-08-22T20:46:13.370Z,59.30
2022-08-22T20:48:44.878Z,59.30
2022-08-22T20:51:17.351Z,59.40
2022-08-22T20:53:52.684Z,59.60
2022-08-22T20:56:36.593Z,59.80
2022-08-22T20:59:19.388Z,60.00
2022-08-22T21:01:48.552Z,60.30
2022-08-22T21:04:21.879Z,60.40
2022-08-22T21:07:00.969Z,60.40
2022-08-22T21:09:47.994Z,60.20
2022-08-22T21:12:16.576Z,60.00
2022-08-22T21:14:47.385Z,59.70
2022-08-22T21:17:21.186Z,59.60
2022-08-22T21:19:50.064Z,59.50
2022-08-22T21:22:30.251Z,59.30
2022-08-22T21:25:00.837Z,59.30
2022-08-22T21:27:34.044Z,59.20
2022-08-22T21:30:07.835Z,59.20
2022-08-22T21:32:41.167Z,59.20
2022-08-22T21:35:25.129Z,59.00
2022-08-22T21:37:53.682Z,59.20
2022-08-22T21:40:24.929Z,59.00
2022-08-22T21:43:06.950Z,59.10
2022-08-22T21:45:43.870Z,59.30
2022-08-22T21:48:32.277Z,59.50
2022-08-22T21:51:32.902Z,59.40
2022-08-22T21:54:23.008Z,59.40
2022-08-22T21:56:53.362Z,59.50
2022-08-22T21:59:43.184Z,59.80
2022-08-22T22:02:36.605Z,59.60
2022-08-22T22:05:10.288Z,59.60
2022-08-22T22:07:41.461Z,59.80
2022-08-22T22:10:13.209Z,59.80
2022-08-22T22:12:42.019Z,59.90
2022-08-22T22:15:13.711Z,59.80
2022-08-22T22:17:43.478Z,59.90
2022-08-22T22:20:13.205Z,59.70
2022-08-22T22:22:46.589Z,59.90
2022-08-22T22:25:40.609Z,59.90
2022-08-22T22:28:07.476Z,59.90
2022-08-22T22:30:36.105Z,60.00
2022-08-22T22:33:06.327Z,60.00
2022-08-22T22:35:35.018Z,60.00
2022-08-22T22:38:03.193Z,59.90
2022-08-22T22:40:31.577Z,60.00
2022-08-22T22:42:59.823Z,60.00
2022-08-22T22:45:28.007Z,60.00
2022-08-22T22:47:56.578Z,60.00
2022-08-22T22:50:26.669Z,60.00
2022-08-22T22:52:54.969Z,60.10
2022-08-22T22:55:24.553Z,60.00
2022-08-22T22:57:59.142Z,60.00
2022-08-22T23:00:30.508Z,59.90
2022-08-22T23:03:00.278Z,60.00
2022-08-22T23:05:30.534Z,60.00
2022-08-22T23:07:59.426Z,60.10
2022-08-22T23:10:29.485Z,59.90
2022-08-22T23:12:57.720Z,59.90
2022-08-22T23:15:26.000Z,60.00
2022-08-22T23:17:54.318Z,60.10
2022-08-22T23:20:22.468Z,60.00
2022-08-22T23:22:52.015Z,59.90
2022-08-22T23:25:20.433Z,59.90
2022-08-22T23:27:52.718Z,59.90
2022-08-22T23:30:21.830Z,59.90
2022-08-22T23:32:50.306Z,60.10
2022-08-22T23:35:18.558Z,59.90
2022-08-22T23:37:46.765Z,59.90
2022-08-22T23:40:16.376Z,60.10
2022-08-22T23:42:44.601Z,60.00
2022-08-22T23:45:12.754Z,60.10
2022-08-22T23:47:41.037Z,60.00
2022-08-22T23:50:09.673Z,60.00
2022-08-22T23:52:37.880Z,59.90
2022-08-22T23:55:06.719Z,59.90
2022-08-22T23:57:36.388Z,59.90
